sensor_id;sensor_type;location;lat;lon;timestamp;P1;durP1;ratioP1;P2;durP2;ratioP2
17365;SDS011;8800;50.118;9.900;2023-06-22T00:00:40;9.85;;;7.28;;
17365;SDS011;8800;50.118;9.900;2023-06-22T00:03:07;10.00;;;7.13;;
17365;SDS011;8800;50.118;9.900;2023-06-22T00:05:34;10.63;;;7.22;;
17365;SDS011;8800;50.118;9.900;2023-06-22T00:08:01;10.13;;;6.93;;
17365;SDS011;8800;50.118;9.900;2023-06-22T00:10:28;10.00;;;6.93;;
17365;SDS011;8800;50.118;9.900;2023-06-22T00:12:54;11.57;;;6.75;;
17365;SDS011;8800;50.118;9.900;2023-06-22T00:15:21;10.07;;;6.97;;
17365;SDS011;8800;50.118;9.900;2023-06-22T00:17:48;12.70;;;6.68;;
17365;SDS011;8800;50.118;9.900;2023-06-22T00:20:15;9.93;;;7.35;;
17365;SDS011;8800;50.118;9.900;2023-06-22T00:22:43;12.52;;;7.45;;
17365;SDS011;8800;50.118;9.900;2023-06-22T00:25:09;12.82;;;7.57;;
17365;SDS011;8800;50.118;9.900;2023-06-22T00:27:36;9.55;;;6.85;;
17365;SDS011;8800;50.118;9.900;2023-06-22T00:30:03;11.57;;;7.10;;
17365;SDS011;8800;50.118;9.900;2023-06-22T00:32:29;10.93;;;7.32;;
17365;SDS011;8800;50.118;9.900;2023-06-22T00:34:57;12.93;;;7.68;;
17365;SDS011;8800;50.118;9.900;2023-06-22T00:37:25;13.30;;;7.72;;
17365;SDS011;8800;50.118;9.900;2023-06-22T00:39:54;11.35;;;8.45;;
17365;SDS011;8800;50.118;9.900;2023-06-22T00:42:21;12.93;;;8.40;;
17365;SDS011;8800;50.118;9.900;2023-06-22T00:44:48;11.57;;;8.30;;
17365;SDS011;8800;50.118;9.900;2023-06-22T00:47:15;12.13;;;8.65;;
17365;SDS011;8800;50.118;9.900;2023-06-22T00:49:42;15.00;;;8.75;;
17365;SDS011;8800;50.118;9.900;2023-06-22T00:52:10;11.63;;;7.88;;
17365;SDS011;8800;50.118;9.900;2023-06-22T00:54:38;16.52;;;8.27;;
17365;SDS011;8800;50.118;9.900;2023-06-22T00:57:05;12.75;;;7.78;;
17365;SDS011;8800;50.118;9.900;2023-06-22T00:59:36;16.45;;;7.85;;
17365;SDS011;8800;50.118;9.900;2023-06-22T01:02:04;13.10;;;8.30;;
17365;SDS011;8800;50.118;9.900;2023-06-22T01:04:34;11.00;;;8.30;;
17365;SDS011;8800;50.118;9.900;2023-06-22T01:07:02;17.70;;;8.98;;
17365;SDS011;8800;50.118;9.900;2023-06-22T01:09:32;12.23;;;7.85;;
17365;SDS011;8800;50.118;9.900;2023-06-22T01:12:01;11.68;;;8.38;;
17365;SDS011;8800;50.118;9.900;2023-06-22T01:14:31;11.05;;;8.38;;
17365;SDS011;8800;50.118;9.900;2023-06-22T01:17:01;14.90;;;8.02;;
17365;SDS011;8800;50.118;9.900;2023-06-22T01:19:35;15.93;;;8.82;;
17365;SDS011;8800;50.118;9.900;2023-06-22T01:22:04;12.80;;;8.25;;
17365;SDS011;8800;50.118;9.900;2023-06-22T01:24:33;13.10;;;9.02;;
17365;SDS011;8800;50.118;9.900;2023-06-22T01:27:08;18.90;;;9.10;;
17365;SDS011;8800;50.118;9.900;2023-06-22T01:29:39;12.20;;;8.60;;
17365;SDS011;8800;50.118;9.900;2023-06-22T01:32:08;12.57;;;8.40;;
17365;SDS011;8800;50.118;9.900;2023-06-22T01:34:36;15.23;;;8.50;;
17365;SDS011;8800;50.118;9.900;2023-06-22T01:37:05;12.30;;;8.32;;
17365;SDS011;8800;50.118;9.900;2023-06-22T01:39:31;14.85;;;8.75;;
17365;SDS011;8800;50.118;9.900;2023-06-22T01:41:58;14.20;;;7.93;;
17365;SDS011;8800;50.118;9.900;2023-06-22T01:44:25;16.50;;;8.45;;
17365;SDS011;8800;50.118;9.900;2023-06-22T01:46:54;10.65;;;8.50;;
17365;SDS011;8800;50.118;9.900;2023-06-22T01:49:20;14.93;;;8.50;;
17365;SDS011;8800;50.118;9.900;2023-06-22T01:51:47;10.63;;;7.47;;
17365;SDS011;8800;50.118;9.900;2023-06-22T01:54:13;10.57;;;8.05;;
17365;SDS011;8800;50.118;9.900;2023-06-22T01:56:40;13.48;;;8.05;;
17365;SDS011;8800;50.118;9.900;2023-06-22T01:59:08;11.75;;;7.60;;
17365;SDS011;8800;50.118;9.900;2023-06-22T02:01:39;10.90;;;7.88;;
17365;SDS011;8800;50.118;9.900;2023-06-22T02:04:11;15.15;;;7.53;;
17365;SDS011;8800;50.118;9.900;2023-06-22T02:06:39;14.57;;;8.85;;
17365;SDS011;8800;50.118;9.900;2023-06-22T02:09:08;13.18;;;7.93;;
17365;SDS011;8800;50.118;9.900;2023-06-22T02:11:35;14.15;;;8.27;;
17365;SDS011;8800;50.118;9.900;2023-06-22T02:14:03;12.85;;;8.32;;
17365;SDS011;8800;50.118;9.900;2023-06-22T02:16:31;13.18;;;7.78;;
17365;SDS011;8800;50.118;9.900;2023-06-22T02:18:58;16.67;;;8.07;;
17365;SDS011;8800;50.118;9.900;2023-06-22T02:21:29;11.07;;;7.68;;
17365;SDS011;8800;50.118;9.900;2023-06-22T02:23:56;12.63;;;7.78;;
17365;SDS011;8800;50.118;9.900;2023-06-22T02:26:22;12.93;;;7.82;;
17365;SDS011;8800;50.118;9.900;2023-06-22T02:28:50;11.45;;;7.22;;
17365;SDS011;8800;50.118;9.900;2023-06-22T02:31:16;15.82;;;8.02;;
17365;SDS011;8800;50.118;9.900;2023-06-22T02:33:43;13.77;;;8.27;;
17365;SDS011;8800;50.118;9.900;2023-06-22T02:36:10;10.32;;;8.02;;
17365;SDS011;8800;50.118;9.900;2023-06-22T02:38:39;12.93;;;7.70;;
17365;SDS011;8800;50.118;9.900;2023-06-22T02:41:13;14.07;;;8.60;;
17365;SDS011;8800;50.118;9.900;2023-06-22T02:43:43;11.38;;;8.43;;
17365;SDS011;8800;50.118;9.900;2023-06-22T02:46:09;13.07;;;9.00;;
17365;SDS011;8800;50.118;9.900;2023-06-22T02:48:36;12.18;;;7.68;;
17365;SDS011;8800;50.118;9.900;2023-06-22T02:51:02;12.68;;;8.02;;
17365;SDS011;8800;50.118;9.900;2023-06-22T02:53:29;12.18;;;8.15;;
17365;SDS011;8800;50.118;9.900;2023-06-22T02:55:57;13.85;;;8.25;;
17365;SDS011;8800;50.118;9.900;2023-06-22T02:58:23;9.65;;;7.70;;
17365;SDS011;8800;50.118;9.900;2023-06-22T03:00:50;12.25;;;7.60;;
17365;SDS011;8800;50.118;9.900;2023-06-22T03:03:18;13.05;;;7.57;;
17365;SDS011;8800;50.118;9.900;2023-06-22T03:05:44;11.32;;;7.65;;
17365;SDS011;8800;50.118;9.900;2023-06-22T03:08:11;12.32;;;8.13;;
17365;SDS011;8800;50.118;9.900;2023-06-22T03:10:37;10.32;;;7.78;;
17365;SDS011;8800;50.118;9.900;2023-06-22T03:13:05;12.77;;;7.60;;
17365;SDS011;8800;50.118;9.900;2023-06-22T03:15:31;9.27;;;7.60;;
17365;SDS011;8800;50.118;9.900;2023-06-22T03:17:58;15.45;;;7.47;;
17365;SDS011;8800;50.118;9.900;2023-06-22T03:20:25;11.23;;;8.10;;
17365;SDS011;8800;50.118;9.900;2023-06-22T03:22:55;12.82;;;7.60;;
17365;SDS011;8800;50.118;9.900;2023-06-22T03:25:23;10.88;;;7.80;;
17365;SDS011;8800;50.118;9.900;2023-06-22T03:27:50;14.85;;;7.60;;
17365;SDS011;8800;50.118;9.900;2023-06-22T03:30:18;11.20;;;7.78;;
17365;SDS011;8800;50.118;9.900;2023-06-22T03:32:44;11.10;;;8.20;;
17365;SDS011;8800;50.118;9.900;2023-06-22T03:35:11;10.35;;;7.78;;
17365;SDS011;8800;50.118;9.900;2023-06-22T03:37:39;12.98;;;8.20;;
17365;SDS011;8800;50.118;9.900;2023-06-22T03:40:06;14.95;;;8.57;;
17365;SDS011;8800;50.118;9.900;2023-06-22T03:42:33;13.00;;;8.13;;
17365;SDS011;8800;50.118;9.900;2023-06-22T03:44:59;11.63;;;8.02;;
17365;SDS011;8800;50.118;9.900;2023-06-22T03:47:28;11.52;;;8.63;;
17365;SDS011;8800;50.118;9.900;2023-06-22T03:49:54;15.27;;;8.75;;
17365;SDS011;8800;50.118;9.900;2023-06-22T03:52:21;14.68;;;8.57;;
17365;SDS011;8800;50.118;9.900;2023-06-22T03:54:48;10.75;;;8.30;;
17365;SDS011;8800;50.118;9.900;2023-06-22T03:57:14;12.80;;;8.30;;
17365;SDS011;8800;50.118;9.900;2023-06-22T03:59:41;10.63;;;7.65;;
17365;SDS011;8800;50.118;9.900;2023-06-22T04:02:07;12.02;;;8.13;;
17365;SDS011;8800;50.118;9.900;2023-06-22T04:04:35;16.17;;;7.72;;
17365;SDS011;8800;50.118;9.900;2023-06-22T04:07:03;10.10;;;7.35;;
17365;SDS011;8800;50.118;9.900;2023-06-22T04:09:30;10.70;;;7.63;;
17365;SDS011;8800;50.118;9.900;2023-06-22T04:11:57;10.02;;;7.93;;
17365;SDS011;8800;50.118;9.900;2023-06-22T04:14:23;11.20;;;8.18;;
17365;SDS011;8800;50.118;9.900;2023-06-22T04:16:50;12.70;;;7.93;;
17365;SDS011;8800;50.118;9.900;2023-06-22T04:19:16;11.00;;;8.25;;
17365;SDS011;8800;50.118;9.900;2023-06-22T04:21:44;11.60;;;8.15;;
17365;SDS011;8800;50.118;9.900;2023-06-22T04:24:13;12.13;;;8.00;;
17365;SDS011;8800;50.118;9.900;2023-06-22T04:26:40;10.60;;;7.72;;
17365;SDS011;8800;50.118;9.900;2023-06-22T04:29:07;11.30;;;7.40;;
17365;SDS011;8800;50.118;9.900;2023-06-22T04:31:34;10.30;;;8.02;;
17365;SDS011;8800;50.118;9.900;2023-06-22T04:34:02;10.45;;;8.27;;
17365;SDS011;8800;50.118;9.900;2023-06-22T04:36:31;13.88;;;8.35;;
17365;SDS011;8800;50.118;9.900;2023-06-22T04:39:03;11.00;;;8.13;;
17365;SDS011;8800;50.118;9.900;2023-06-22T04:41:30;13.90;;;8.73;;
17365;SDS011;8800;50.118;9.900;2023-06-22T04:44:07;11.60;;;7.97;;
17365;SDS011;8800;50.118;9.900;2023-06-22T04:46:33;11.38;;;7.93;;
17365;SDS011;8800;50.118;9.900;2023-06-22T04:49:03;11.70;;;8.23;;
17365;SDS011;8800;50.118;9.900;2023-06-22T04:51:31;15.82;;;9.00;;
17365;SDS011;8800;50.118;9.900;2023-06-22T04:53:57;12.00;;;8.45;;
17365;SDS011;8800;50.118;9.900;2023-06-22T04:56:27;9.95;;;8.23;;
17365;SDS011;8800;50.118;9.900;2023-06-22T04:58:54;12.25;;;8.30;;
17365;SDS011;8800;50.118;9.900;2023-06-22T05:01:22;16.88;;;8.32;;
17365;SDS011;8800;50.118;9.900;2023-06-22T05:03:48;15.60;;;8.90;;
17365;SDS011;8800;50.118;9.900;2023-06-22T05:06:15;11.43;;;9.13;;
17365;SDS011;8800;50.118;9.900;2023-06-22T05:08:42;16.35;;;8.95;;
17365;SDS011;8800;50.118;9.900;2023-06-22T05:11:09;11.07;;;8.38;;
17365;SDS011;8800;50.118;9.900;2023-06-22T05:13:37;12.45;;;8.60;;
17365;SDS011;8800;50.118;9.900;2023-06-22T05:16:03;14.40;;;8.75;;
17365;SDS011;8800;50.118;9.900;2023-06-22T05:18:31;12.23;;;8.93;;
17365;SDS011;8800;50.118;9.900;2023-06-22T05:20:57;11.32;;;8.52;;
17365;SDS011;8800;50.118;9.900;2023-06-22T05:23:24;14.45;;;8.63;;
17365;SDS011;8800;50.118;9.900;2023-06-22T05:25:51;12.85;;;8.73;;
17365;SDS011;8800;50.118;9.900;2023-06-22T05:28:17;13.70;;;8.50;;
17365;SDS011;8800;50.118;9.900;2023-06-22T05:30:49;12.75;;;9.32;;
17365;SDS011;8800;50.118;9.900;2023-06-22T05:33:15;10.60;;;8.13;;
17365;SDS011;8800;50.118;9.900;2023-06-22T05:35:42;12.35;;;8.88;;
17365;SDS011;8800;50.118;9.900;2023-06-22T05:38:08;15.13;;;8.38;;
17365;SDS011;8800;50.118;9.900;2023-06-22T05:40:34;11.10;;;8.35;;
17365;SDS011;8800;50.118;9.900;2023-06-22T05:43:01;12.50;;;8.23;;
17365;SDS011;8800;50.118;9.900;2023-06-22T05:45:27;13.07;;;8.60;;
17365;SDS011;8800;50.118;9.900;2023-06-22T05:47:55;12.18;;;8.90;;
17365;SDS011;8800;50.118;9.900;2023-06-22T05:50:22;13.60;;;8.80;;
17365;SDS011;8800;50.118;9.900;2023-06-22T05:52:48;14.15;;;9.10;;
17365;SDS011;8800;50.118;9.900;2023-06-22T05:55:14;14.60;;;8.95;;
17365;SDS011;8800;50.118;9.900;2023-06-22T05:57:43;11.48;;;8.70;;
17365;SDS011;8800;50.118;9.900;2023-06-22T06:00:10;11.88;;;8.60;;
17365;SDS011;8800;50.118;9.900;2023-06-22T06:02:37;10.88;;;8.90;;
17365;SDS011;8800;50.118;9.900;2023-06-22T06:05:10;14.70;;;8.68;;
17365;SDS011;8800;50.118;9.900;2023-06-22T06:07:36;10.63;;;8.60;;
17365;SDS011;8800;50.118;9.900;2023-06-22T06:10:03;14.13;;;8.57;;
17365;SDS011;8800;50.118;9.900;2023-06-22T06:12:31;14.00;;;9.50;;
17365;SDS011;8800;50.118;9.900;2023-06-22T06:14:57;13.02;;;8.82;;
17365;SDS011;8800;50.118;9.900;2023-06-22T06:17:24;12.65;;;8.65;;
17365;SDS011;8800;50.118;9.900;2023-06-22T06:19:51;13.38;;;8.60;;
17365;SDS011;8800;50.118;9.900;2023-06-22T06:22:19;12.13;;;8.98;;
17365;SDS011;8800;50.118;9.900;2023-06-22T06:24:46;11.63;;;8.85;;
17365;SDS011;8800;50.118;9.900;2023-06-22T06:27:12;12.07;;;8.85;;
17365;SDS011;8800;50.118;9.900;2023-06-22T06:29:39;14.00;;;9.27;;
17365;SDS011;8800;50.118;9.900;2023-06-22T06:32:06;12.13;;;8.90;;
17365;SDS011;8800;50.118;9.900;2023-06-22T06:34:32;9.57;;;8.48;;
17365;SDS011;8800;50.118;9.900;2023-06-22T06:36:59;12.30;;;9.30;;
17365;SDS011;8800;50.118;9.900;2023-06-22T06:39:26;11.23;;;8.30;;
17365;SDS011;8800;50.118;9.900;2023-06-22T06:41:53;14.55;;;9.35;;
17365;SDS011;8800;50.118;9.900;2023-06-22T06:44:19;12.45;;;8.57;;
17365;SDS011;8800;50.118;9.900;2023-06-22T06:46:46;12.93;;;8.82;;
17365;SDS011;8800;50.118;9.900;2023-06-22T06:49:12;10.68;;;8.52;;
17365;SDS011;8800;50.118;9.900;2023-06-22T06:51:39;10.55;;;9.00;;
17365;SDS011;8800;50.118;9.900;2023-06-22T06:54:09;18.20;;;9.27;;
17365;SDS011;8800;50.118;9.900;2023-06-22T06:56:36;13.68;;;9.35;;
17365;SDS011;8800;50.118;9.900;2023-06-22T06:59:03;12.82;;;8.55;;
17365;SDS011;8800;50.118;9.900;2023-06-22T07:01:29;11.05;;;9.05;;
17365;SDS011;8800;50.118;9.900;2023-06-22T07:03:58;13.23;;;8.82;;
17365;SDS011;8800;50.118;9.900;2023-06-22T07:06:25;12.60;;;8.90;;
17365;SDS011;8800;50.118;9.900;2023-06-22T07:08:54;12.48;;;8.95;;
17365;SDS011;8800;50.118;9.900;2023-06-22T07:11:21;15.35;;;8.30;;
17365;SDS011;8800;50.118;9.900;2023-06-22T07:13:48;12.02;;;8.75;;
17365;SDS011;8800;50.118;9.900;2023-06-22T07:16:15;11.38;;;8.30;;
17365;SDS011;8800;50.118;9.900;2023-06-22T07:18:41;12.73;;;8.90;;
17365;SDS011;8800;50.118;9.900;2023-06-22T07:21:08;16.45;;;8.23;;
17365;SDS011;8800;50.118;9.900;2023-06-22T07:23:34;12.27;;;8.40;;
17365;SDS011;8800;50.118;9.900;2023-06-22T07:26:01;12.27;;;8.77;;
17365;SDS011;8800;50.118;9.900;2023-06-22T07:28:28;11.30;;;7.95;;
17365;SDS011;8800;50.118;9.900;2023-06-22T07:30:57;12.85;;;8.68;;
17365;SDS011;8800;50.118;9.900;2023-06-22T07:33:24;13.05;;;8.35;;
17365;SDS011;8800;50.118;9.900;2023-06-22T07:35:50;9.75;;;8.00;;
17365;SDS011;8800;50.118;9.900;2023-06-22T07:38:17;11.57;;;7.90;;
17365;SDS011;8800;50.118;9.900;2023-06-22T07:40:43;12.60;;;7.90;;
17365;SDS011;8800;50.118;9.900;2023-06-22T07:43:10;12.75;;;8.02;;
17365;SDS011;8800;50.118;9.900;2023-06-22T07:45:37;11.18;;;7.55;;
17365;SDS011;8800;50.118;9.900;2023-06-22T07:48:06;10.48;;;8.15;;
17365;SDS011;8800;50.118;9.900;2023-06-22T07:50:33;11.75;;;8.52;;
17365;SDS011;8800;50.118;9.900;2023-06-22T07:52:59;10.35;;;8.18;;
17365;SDS011;8800;50.118;9.900;2023-06-22T07:55:26;10.68;;;8.57;;
17365;SDS011;8800;50.118;9.900;2023-06-22T07:57:52;11.32;;;7.55;;
17365;SDS011;8800;50.118;9.900;2023-06-22T08:00:19;10.18;;;8.02;;
17365;SDS011;8800;50.118;9.900;2023-06-22T08:02:46;9.45;;;8.40;;
17365;SDS011;8800;50.118;9.900;2023-06-22T08:05:14;11.55;;;7.75;;
17365;SDS011;8800;50.118;9.900;2023-06-22T08:07:40;11.85;;;8.57;;
17365;SDS011;8800;50.118;9.900;2023-06-22T08:10:09;9.85;;;7.80;;
17365;SDS011;8800;50.118;9.900;2023-06-22T08:12:36;9.70;;;7.95;;
17365;SDS011;8800;50.118;9.900;2023-06-22T08:15:03;11.55;;;7.57;;
17365;SDS011;8800;50.118;9.900;2023-06-22T08:17:30;11.10;;;7.88;;
17365;SDS011;8800;50.118;9.900;2023-06-22T08:19:57;10.45;;;8.13;;
17365;SDS011;8800;50.118;9.900;2023-06-22T08:22:25;11.75;;;7.88;;
17365;SDS011;8800;50.118;9.900;2023-06-22T08:24:51;9.90;;;7.63;;
17365;SDS011;8800;50.118;9.900;2023-06-22T08:27:18;8.63;;;7.72;;
17365;SDS011;8800;50.118;9.900;2023-06-22T08:29:46;11.05;;;8.18;;
17365;SDS011;8800;50.118;9.900;2023-06-22T08:32:12;12.55;;;8.23;;
17365;SDS011;8800;50.118;9.900;2023-06-22T08:34:39;11.90;;;7.45;;
17365;SDS011;8800;50.118;9.900;2023-06-22T08:37:07;12.23;;;7.97;;
17365;SDS011;8800;50.118;9.900;2023-06-22T08:39:35;11.05;;;7.65;;
17365;SDS011;8800;50.118;9.900;2023-06-22T08:42:01;8.98;;;7.60;;
17365;SDS011;8800;50.118;9.900;2023-06-22T08:44:28;9.85;;;7.13;;
17365;SDS011;8800;50.118;9.900;2023-06-22T08:46:54;8.50;;;7.40;;
17365;SDS011;8800;50.118;9.900;2023-06-22T08:49:20;12.27;;;7.82;;
17365;SDS011;8800;50.118;9.900;2023-06-22T08:51:47;8.77;;;7.50;;
17365;SDS011;8800;50.118;9.900;2023-06-22T08:54:14;9.10;;;7.60;;
17365;SDS011;8800;50.118;9.900;2023-06-22T08:56:42;9.10;;;7.50;;
17365;SDS011;8800;50.118;9.900;2023-06-22T08:59:09;10.40;;;7.22;;
17365;SDS011;8800;50.118;9.900;2023-06-22T09:01:35;11.32;;;7.60;;
17365;SDS011;8800;50.118;9.900;2023-06-22T09:04:02;12.60;;;7.43;;
17365;SDS011;8800;50.118;9.900;2023-06-22T09:06:31;10.50;;;7.32;;
17365;SDS011;8800;50.118;9.900;2023-06-22T09:08:57;11.80;;;7.50;;
17365;SDS011;8800;50.118;9.900;2023-06-22T09:11:25;11.73;;;7.65;;
17365;SDS011;8800;50.118;9.900;2023-06-22T09:13:53;11.98;;;7.43;;
17365;SDS011;8800;50.118;9.900;2023-06-22T09:16:19;9.65;;;7.10;;
17365;SDS011;8800;50.118;9.900;2023-06-22T09:18:46;8.27;;;7.35;;
17365;SDS011;8800;50.118;9.900;2023-06-22T09:21:13;13.70;;;7.82;;
17365;SDS011;8800;50.118;9.900;2023-06-22T09:23:39;13.35;;;7.95;;
17365;SDS011;8800;50.118;9.900;2023-06-22T09:26:06;9.90;;;7.38;;
17365;SDS011;8800;50.118;9.900;2023-06-22T09:28:33;11.18;;;7.78;;
17365;SDS011;8800;50.118;9.900;2023-06-22T09:31:01;11.50;;;7.55;;
17365;SDS011;8800;50.118;9.900;2023-06-22T09:33:27;10.68;;;7.78;;
17365;SDS011;8800;50.118;9.900;2023-06-22T09:35:53;11.32;;;7.75;;
17365;SDS011;8800;50.118;9.900;2023-06-22T09:38:21;11.57;;;7.75;;
17365;SDS011;8800;50.118;9.900;2023-06-22T09:40:48;11.13;;;7.82;;
17365;SDS011;8800;50.118;9.900;2023-06-22T09:43:14;9.73;;;8.07;;
17365;SDS011;8800;50.118;9.900;2023-06-22T09:45:41;9.32;;;8.02;;
17365;SDS011;8800;50.118;9.900;2023-06-22T09:48:08;8.50;;;7.60;;
17365;SDS011;8800;50.118;9.900;2023-06-22T09:50:35;12.05;;;7.95;;
17365;SDS011;8800;50.118;9.900;2023-06-22T09:53:02;10.63;;;7.80;;
17365;SDS011;8800;50.118;9.900;2023-06-22T09:55:29;12.90;;;8.40;;
17365;SDS011;8800;50.118;9.900;2023-06-22T09:57:55;13.88;;;8.93;;
17365;SDS011;8800;50.118;9.900;2023-06-22T10:00:22;10.15;;;8.02;;
17365;SDS011;8800;50.118;9.900;2023-06-22T10:02:49;10.50;;;8.00;;
17365;SDS011;8800;50.118;9.900;2023-06-22T10:05:17;11.55;;;8.05;;
17365;SDS011;8800;50.118;9.900;2023-06-22T10:07:43;12.82;;;8.18;;
17365;SDS011;8800;50.118;9.900;2023-06-22T10:10:10;11.55;;;8.10;;
17365;SDS011;8800;50.118;9.900;2023-06-22T10:12:40;10.10;;;8.45;;
17365;SDS011;8800;50.118;9.900;2023-06-22T10:15:07;11.00;;;8.27;;
17365;SDS011;8800;50.118;9.900;2023-06-22T10:17:34;10.75;;;8.20;;
17365;SDS011;8800;50.118;9.900;2023-06-22T10:20:00;11.38;;;8.57;;
17365;SDS011;8800;50.118;9.900;2023-06-22T10:22:32;13.90;;;8.57;;
17365;SDS011;8800;50.118;9.900;2023-06-22T10:24:58;11.20;;;7.88;;
17365;SDS011;8800;50.118;9.900;2023-06-22T10:27:25;10.70;;;7.90;;
17365;SDS011;8800;50.118;9.900;2023-06-22T10:29:51;10.32;;;7.38;;
17365;SDS011;8800;50.118;9.900;2023-06-22T10:32:18;11.23;;;8.18;;
17365;SDS011;8800;50.118;9.900;2023-06-22T10:34:45;11.40;;;8.00;;
17365;SDS011;8800;50.118;9.900;2023-06-22T10:37:11;11.90;;;8.13;;
17365;SDS011;8800;50.118;9.900;2023-06-22T10:39:39;10.27;;;8.10;;
17365;SDS011;8800;50.118;9.900;2023-06-22T10:42:06;12.90;;;8.25;;
17365;SDS011;8800;50.118;9.900;2023-06-22T10:44:32;11.70;;;7.88;;
17365;SDS011;8800;50.118;9.900;2023-06-22T10:46:58;12.32;;;8.35;;
17365;SDS011;8800;50.118;9.900;2023-06-22T10:49:26;10.30;;;7.80;;
17365;SDS011;8800;50.118;9.900;2023-06-22T10:51:53;10.13;;;7.88;;
17365;SDS011;8800;50.118;9.900;2023-06-22T10:54:19;9.38;;;7.93;;
17365;SDS011;8800;50.118;9.900;2023-06-22T10:56:47;10.95;;;7.65;;
17365;SDS011;8800;50.118;9.900;2023-06-22T10:59:14;8.80;;;7.80;;
17365;SDS011;8800;50.118;9.900;2023-06-22T11:01:40;10.40;;;7.78;;
17365;SDS011;8800;50.118;9.900;2023-06-22T11:04:07;13.88;;;8.40;;
17365;SDS011;8800;50.118;9.900;2023-06-22T11:06:33;12.45;;;8.60;;
17365;SDS011;8800;50.118;9.900;2023-06-22T11:09:00;9.40;;;7.97;;
17365;SDS011;8800;50.118;9.900;2023-06-22T11:11:26;10.13;;;7.60;;
17365;SDS011;8800;50.118;9.900;2023-06-22T11:13:54;12.57;;;7.53;;
17365;SDS011;8800;50.118;9.900;2023-06-22T11:16:20;10.02;;;7.55;;
17365;SDS011;8800;50.118;9.900;2023-06-22T11:18:47;11.27;;;7.60;;
17365;SDS011;8800;50.118;9.900;2023-06-22T11:21:13;14.45;;;7.50;;
17365;SDS011;8800;50.118;9.900;2023-06-22T11:23:41;11.10;;;7.90;;
17365;SDS011;8800;50.118;9.900;2023-06-22T11:26:08;11.32;;;7.50;;
17365;SDS011;8800;50.118;9.900;2023-06-22T11:28:34;13.07;;;7.47;;
17365;SDS011;8800;50.118;9.900;2023-06-22T11:31:04;9.43;;;7.60;;
17365;SDS011;8800;50.118;9.900;2023-06-22T11:33:32;8.40;;;7.18;;
17365;SDS011;8800;50.118;9.900;2023-06-22T11:35:58;10.13;;;7.57;;
17365;SDS011;8800;50.118;9.900;2023-06-22T11:38:25;17.38;;;8.00;;
17365;SDS011;8800;50.118;9.900;2023-06-22T11:40:51;9.30;;;7.40;;
17365;SDS011;8800;50.118;9.900;2023-06-22T11:43:18;10.57;;;7.60;;
17365;SDS011;8800;50.118;9.900;2023-06-22T11:45:45;11.40;;;7.50;;
17365;SDS011;8800;50.118;9.900;2023-06-22T11:48:12;10.93;;;7.45;;
17365;SDS011;8800;50.118;9.900;2023-06-22T11:50:39;14.80;;;7.55;;
17365;SDS011;8800;50.118;9.900;2023-06-22T11:53:06;10.63;;;7.07;;
17365;SDS011;8800;50.118;9.900;2023-06-22T11:55:32;10.00;;;7.35;;
17365;SDS011;8800;50.118;9.900;2023-06-22T11:57:58;9.35;;;7.00;;
17365;SDS011;8800;50.118;9.900;2023-06-22T12:00:28;8.85;;;7.07;;
17365;SDS011;8800;50.118;9.900;2023-06-22T12:02:54;11.25;;;6.97;;
17365;SDS011;8800;50.118;9.900;2023-06-22T12:05:23;8.63;;;6.72;;
17365;SDS011;8800;50.118;9.900;2023-06-22T12:07:53;8.70;;;6.47;;
17365;SDS011;8800;50.118;9.900;2023-06-22T12:10:19;12.38;;;6.40;;
17365;SDS011;8800;50.118;9.900;2023-06-22T12:12:46;10.82;;;6.53;;
17365;SDS011;8800;50.118;9.900;2023-06-22T12:15:12;10.50;;;6.18;;
17365;SDS011;8800;50.118;9.900;2023-06-22T12:17:39;11.00;;;6.70;;
17365;SDS011;8800;50.118;9.900;2023-06-22T12:20:06;9.23;;;6.28;;
17365;SDS011;8800;50.118;9.900;2023-06-22T12:22:34;8.77;;;6.55;;
17365;SDS011;8800;50.118;9.900;2023-06-22T12:25:02;9.07;;;6.10;;
17365;SDS011;8800;50.118;9.900;2023-06-22T12:27:29;9.93;;;6.50;;
17365;SDS011;8800;50.118;9.900;2023-06-22T12:29:56;12.27;;;6.95;;
17365;SDS011;8800;50.118;9.900;2023-06-22T12:32:22;10.25;;;6.25;;
17365;SDS011;8800;50.118;9.900;2023-06-22T12:34:49;11.27;;;6.53;;
17365;SDS011;8800;50.118;9.900;2023-06-22T12:37:15;7.38;;;5.72;;
17365;SDS011;8800;50.118;9.900;2023-06-22T12:39:43;8.18;;;5.65;;
17365;SDS011;8800;50.118;9.900;2023-06-22T12:42:10;7.60;;;5.90;;
17365;SDS011;8800;50.118;9.900;2023-06-22T12:44:37;9.10;;;6.10;;
17365;SDS011;8800;50.118;9.900;2023-06-22T12:47:04;8.13;;;5.28;;
17365;SDS011;8800;50.118;9.900;2023-06-22T12:49:30;8.18;;;6.13;;
17365;SDS011;8800;50.118;9.900;2023-06-22T12:51:57;11.02;;;6.05;;
17365;SDS011;8800;50.118;9.900;2023-06-22T12:54:23;10.48;;;6.32;;
17365;SDS011;8800;50.118;9.900;2023-06-22T12:56:51;9.75;;;5.90;;
17365;SDS011;8800;50.118;9.900;2023-06-22T12:59:17;8.68;;;6.20;;
17365;SDS011;8800;50.118;9.900;2023-06-22T13:01:44;10.65;;;5.95;;
17365;SDS011;8800;50.118;9.900;2023-06-22T13:04:11;9.95;;;5.38;;
17365;SDS011;8800;50.118;9.900;2023-06-22T13:06:39;9.00;;;5.82;;
17365;SDS011;8800;50.118;9.900;2023-06-22T13:09:06;8.77;;;5.82;;
17365;SDS011;8800;50.118;9.900;2023-06-22T13:11:33;10.68;;;5.93;;
17365;SDS011;8800;50.118;9.900;2023-06-22T13:14:01;9.52;;;5.90;;
17365;SDS011;8800;50.118;9.900;2023-06-22T13:16:27;7.53;;;5.80;;
17365;SDS011;8800;50.118;9.900;2023-06-22T13:18:54;7.90;;;5.78;;
17365;SDS011;8800;50.118;9.900;2023-06-22T13:21:20;11.50;;;5.88;;
17365;SDS011;8800;50.118;9.900;2023-06-22T13:23:47;7.72;;;5.70;;
17365;SDS011;8800;50.118;9.900;2023-06-22T13:26:14;9.05;;;6.00;;
17365;SDS011;8800;50.118;9.900;2023-06-22T13:28:40;9.32;;;6.10;;
17365;SDS011;8800;50.118;9.900;2023-06-22T13:31:08;9.40;;;5.75;;
17365;SDS011;8800;50.118;9.900;2023-06-22T13:33:34;6.97;;;5.43;;
17365;SDS011;8800;50.118;9.900;2023-06-22T13:36:01;10.18;;;6.15;;
17365;SDS011;8800;50.118;9.900;2023-06-22T13:38:28;8.25;;;5.72;;
17365;SDS011;8800;50.118;9.900;2023-06-22T13:40:56;10.07;;;6.28;;
17365;SDS011;8800;50.118;9.900;2023-06-22T13:43:24;13.32;;;6.20;;
17365;SDS011;8800;50.118;9.900;2023-06-22T13:45:51;7.97;;;5.72;;
17365;SDS011;8800;50.118;9.900;2023-06-22T13:48:18;8.77;;;6.15;;
17365;SDS011;8800;50.118;9.900;2023-06-22T13:50:45;8.25;;;5.47;;
17365;SDS011;8800;50.118;9.900;2023-06-22T13:53:12;9.10;;;6.28;;
17365;SDS011;8800;50.118;9.900;2023-06-22T13:55:39;9.73;;;6.07;;
17365;SDS011;8800;50.118;9.900;2023-06-22T13:58:05;8.15;;;5.88;;
17365;SDS011;8800;50.118;9.900;2023-06-22T14:00:32;9.70;;;5.85;;
17365;SDS011;8800;50.118;9.900;2023-06-22T14:02:58;11.68;;;6.03;;
17365;SDS011;8800;50.118;9.900;2023-06-22T14:05:26;10.85;;;5.78;;
17365;SDS011;8800;50.118;9.900;2023-06-22T14:07:52;8.82;;;6.00;;
17365;SDS011;8800;50.118;9.900;2023-06-22T14:10:19;9.85;;;6.43;;
17365;SDS011;8800;50.118;9.900;2023-06-22T14:12:45;7.70;;;5.72;;
17365;SDS011;8800;50.118;9.900;2023-06-22T14:15:12;7.95;;;6.10;;
17365;SDS011;8800;50.118;9.900;2023-06-22T14:17:38;11.52;;;5.53;;
17365;SDS011;8800;50.118;9.900;2023-06-22T14:20:05;13.98;;;6.38;;
17365;SDS011;8800;50.118;9.900;2023-06-22T14:22:34;10.20;;;5.80;;
17365;SDS011;8800;50.118;9.900;2023-06-22T14:25:04;9.10;;;5.78;;
17365;SDS011;8800;50.118;9.900;2023-06-22T14:27:31;7.78;;;5.80;;
17365;SDS011;8800;50.118;9.900;2023-06-22T14:29:57;12.52;;;5.88;;
17365;SDS011;8800;50.118;9.900;2023-06-22T14:32:24;9.82;;;5.60;;
17365;SDS011;8800;50.118;9.900;2023-06-22T14:34:50;11.52;;;5.80;;
17365;SDS011;8800;50.118;9.900;2023-06-22T14:37:17;13.43;;;5.88;;
17365;SDS011;8800;50.118;9.900;2023-06-22T14:39:45;10.85;;;5.80;;
17365;SDS011;8800;50.118;9.900;2023-06-22T14:42:11;11.23;;;5.75;;
17365;SDS011;8800;50.118;9.900;2023-06-22T14:44:37;11.52;;;6.00;;
17365;SDS011;8800;50.118;9.900;2023-06-22T14:47:04;12.48;;;5.60;;
17365;SDS011;8800;50.118;9.900;2023-06-22T14:49:31;11.70;;;6.03;;